CDT,Max TemperatureF,Mean TemperatureF,Min TemperatureF,Max Dew PointF,MeanDew PointF,Min DewpointF,Max Humidity, Mean Humidity, Min Humidity, Max Sea Level PressureIn, Mean Sea Level PressureIn, Min Sea Level PressureIn, Max VisibilityMiles, Mean VisibilityMiles, Min VisibilityMiles, Max Wind SpeedMPH, Mean Wind SpeedMPH, Max Gust SpeedMPH,PrecipitationIn, CloudCover, Events, WindDirDegrees
2013-3-1,61,46,30,35,31,26,99,61,27,30.28,30.22,30.16,10,10,10,17,4,23,0.00,0,,319
2013-3-2,51,41,31,34,28,22,94,63,33,30.36,30.30,30.23,10,10,10,20,6,26,0.00,1,,328
2013-3-3,67,48,28,43,31,21,99,60,23,30.31,30.20,30.06,10,9,7,13,2,18,0.00,0,,174
2013-3-4,77,64,50,61,54,43,89,70,47,30.05,29.91,29.81,10,10,10,24,11,32,0.00,3,,176
2013-3-5,68,59,49,62,41,24,90,51,24,30.32,30.12,29.84,10,10,7,22,11,32,0.00,3,,314
2013-3-6,64,50,36,38,29,22,87,49,20,30.43,30.34,30.28,10,10,4,9,5,17,0.00,0,,351
2013-3-7,68,52,36,41,36,32,92,59,27,30.35,30.28,30.22,10,10,7,8,2,,0.00,0,,101
2013-3-8,74,58,41,54,47,39,95,68,37,30.29,30.21,30.14,10,10,7,10,2,,0.00,0,,117
2013-3-9,73,64,56,62,57,48,91,78,60,30.13,29.99,29.87,10,10,7,17,4,25,0.00,6,,138
2013-3-10,68,59,50,64,54,36,92,79,59,30.08,29.91,29.77,10,9,2,20,7,31,0.29,6,Rain,322
2013-3-11,60,50,38,40,33,30,95,54,32,30.13,30.07,30.00,10,10,10,15,8,23,0.00,0,,326
2013-3-12,70,51,32,41,34,27,100,63,20,30.30,30.19,30.11,10,9,5,7,1,,0.00,0,,16
2013-3-13,71,54,37,41,34,24,97,54,17,30.47,30.39,30.30,10,10,7,13,3,20,0.00,0,,25
2013-3-14,75,56,37,43,37,31,97,56,21,30.46,30.38,30.30,10,10,10,13,3,17,0.00,0,,182
2013-3-15,80,61,42,57,48,42,97,66,30,30.33,30.20,30.09,10,10,10,20,4,24,0.00,0,,189
2013-3-16,81,68,54,60,56,51,97,72,36,30.09,29.98,29.88,10,9,1,18,7,24,0.00,2,,180
2013-3-17,82,70,59,65,62,58,96,80,46,29.93,29.84,29.75,10,9,5,20,6,25,0.00,4,,161
2013-3-18,87,76,65,67,64,58,95,71,41,29.96,29.82,29.77,10,8,4,15,6,21,0.00,4,,207
2013-3-19,78,66,53,57,46,39,77,50,31,30.07,30.01,29.95,10,10,10,12,8,20,0.00,1,,55
2013-3-20,73,60,48,49,40,27,93,54,18,30.26,30.15,30.01,10,10,5,20,9,26,0.18,2,Rain,26
2013-3-21,72,60,48,54,42,34,76,53,29,30.08,29.93,29.77,10,10,7,24,5,30,0.00,4,,123
2013-3-22,84,72,61,67,63,53,92,76,48,29.80,29.75,29.68,10,9,5,12,6,17,0.00,6,,158
2013-3-23,72,66,61,66,63,58,96,87,76,29.80,29.73,29.63,7,5,2,10,2,,0.01,8,Rain,14
2013-3-24,61,54,45,58,41,29,96,61,32,30.15,29.94,29.67,10,9,2,23,9,32,0.00,3,,320
2013-3-25,61,50,38,32,25,18,73,44,19,30.38,30.27,30.15,10,10,10,16,8,25,0.00,0,,338
2013-3-26,59,44,30,34,26,19,92,55,22,30.50,30.42,30.36,10,10,10,17,4,21,0.00,0,,345
2013-3-27,69,50,31,44,33,27,99,58,23,30.44,30.35,30.23,10,10,10,10,3,,0.00,0,,154
2013-3-28,73,62,52,55,49,44,88,65,45,30.35,30.29,30.23,10,10,10,12,3,17,0.00,7,,142
2013-3-29,77,66,54,59,56,54,96,75,45,30.29,30.23,30.16,10,10,7,13,4,20,0.00,5,,163
2013-3-30,79,70,60,63,60,57,96,78,46,30.19,30.09,30.01,10,10,5,16,4,21,0.01,4,Rain,178
2013-3-31,76,66,57,66,61,56,97,90,65,30.05,29.98,29.93,10,8,1,20,4,41,0.64,7,Rain,169